createdAt,value
2019-03-27T00:01:06.793Z,13.40
2019-03-27T00:03:36.755Z,12.98
2019-03-27T00:06:06.951Z,14.53
2019-03-27T00:08:37.215Z,15.30
2019-03-27T00:11:07.325Z,13.77
2019-03-27T00:13:37.909Z,14.77
2019-03-27T00:16:09.367Z,15.20
2019-03-27T00:18:39.620Z,15.17
2019-03-27T00:21:10.352Z,14.60
2019-03-27T00:23:44.313Z,14.97
2019-03-27T00:26:16.576Z,14.30
2019-03-27T00:28:47.883Z,14.47
2019-03-27T00:31:19.825Z,16.12
2019-03-27T00:33:50.168Z,15.70
2019-03-27T00:36:21.536Z,16.23
2019-03-27T00:38:52.324Z,16.10
2019-03-27T00:41:23.245Z,16.23
2019-03-27T00:43:54.804Z,15.70
2019-03-27T00:46:25.206Z,17.57
2019-03-27T00:48:55.117Z,17.30
2019-03-27T00:51:25.077Z,14.50
2019-03-27T00:53:55.582Z,16.67
2019-03-27T00:56:25.476Z,15.53
2019-03-27T00:58:55.436Z,15.33
2019-03-27T01:01:25.395Z,17.63
2019-03-27T01:03:56.772Z,18.47
2019-03-27T01:06:27.300Z,18.00
2019-03-27T01:08:57.259Z,18.47
2019-03-27T01:11:27.491Z,18.63
2019-03-27T01:13:57.553Z,19.10
2019-03-27T01:16:27.472Z,18.60
2019-03-27T01:19:00.709Z,17.60
2019-03-27T01:21:30.797Z,19.42
2019-03-27T01:24:00.744Z,17.50
2019-03-27T01:26:31.683Z,18.82
2019-03-27T01:29:02.230Z,19.55
2019-03-27T01:31:32.680Z,20.43
2019-03-27T01:34:03.676Z,19.48
2019-03-27T01:36:34.610Z,20.08
2019-03-27T01:39:06.392Z,19.77
2019-03-27T01:41:36.262Z,19.60
2019-03-27T01:44:07.260Z,18.87
2019-03-27T01:46:37.136Z,19.67
2019-03-27T01:49:07.099Z,20.50
2019-03-27T01:51:41.204Z,18.30
2019-03-27T01:54:11.752Z,22.07
2019-03-27T01:56:43.520Z,19.00
2019-03-27T01:59:13.813Z,20.37
2019-03-27T02:01:44.415Z,19.60
2019-03-27T02:04:14.291Z,18.97
2019-03-27T02:06:49.126Z,19.80
2019-03-27T02:09:19.552Z,19.57
2019-03-27T02:11:49.477Z,20.63
2019-03-27T02:14:19.774Z,20.13
2019-03-27T02:16:49.685Z,19.35
2019-03-27T02:19:21.407Z,19.70
2019-03-27T02:21:52.352Z,19.37
2019-03-27T02:24:22.268Z,20.25
2019-03-27T02:26:52.217Z,20.33
2019-03-27T02:29:22.173Z,21.73
2019-03-27T02:31:52.088Z,20.80
2019-03-27T02:34:22.355Z,21.68
2019-03-27T02:36:54.619Z,23.43
2019-03-27T02:39:24.632Z,23.07
2019-03-27T02:41:54.624Z,22.00
2019-03-27T02:44:24.589Z,22.20
2019-03-27T02:46:54.513Z,23.27
2019-03-27T02:49:24.444Z,23.25
2019-03-27T02:51:54.726Z,23.80
2019-03-27T02:54:25.124Z,23.87
2019-03-27T02:56:56.145Z,23.60
2019-03-27T02:59:27.798Z,22.30
2019-03-27T03:01:57.662Z,24.65
2019-03-27T03:04:27.957Z,22.77
2019-03-27T03:06:57.925Z,25.17
2019-03-27T03:09:27.856Z,24.98
2019-03-27T03:11:59.961Z,23.90
2019-03-27T03:14:31.766Z,27.03
2019-03-27T03:17:02.803Z,26.35
2019-03-27T03:19:32.671Z,24.82
2019-03-27T03:22:06.307Z,25.72
2019-03-27T03:24:36.811Z,25.13
2019-03-27T03:27:06.742Z,25.93
2019-03-27T03:29:37.299Z,25.20
2019-03-27T03:32:07.650Z,27.00
2019-03-27T03:34:37.925Z,25.55
2019-03-27T03:37:09.949Z,25.50
2019-03-27T03:39:39.808Z,26.33
2019-03-27T03:42:11.099Z,24.92
2019-03-27T03:44:41.822Z,27.50
2019-03-27T03:47:11.708Z,27.00
2019-03-27T03:49:45.605Z,26.05
2019-03-27T03:52:16.506Z,27.27
2019-03-27T03:54:47.067Z,29.23
2019-03-27T03:57:20.297Z,27.55
2019-03-27T03:59:56.088Z,27.40
2019-03-27T04:02:29.172Z,25.83
2019-03-27T04:05:00.149Z,28.47
2019-03-27T04:07:30.634Z,28.37
2019-03-27T04:10:00.811Z,27.00
2019-03-27T04:12:31.607Z,29.93
2019-03-27T04:15:02.884Z,30.23
2019-03-27T04:17:34.116Z,30.10
2019-03-27T04:20:05.606Z,27.80
2019-03-27T04:22:39.580Z,29.10
2019-03-27T04:25:10.413Z,28.63
2019-03-27T04:27:40.870Z,31.13
2019-03-27T04:30:13.978Z,30.27
2019-03-27T04:32:45.542Z,31.87
2019-03-27T04:35:17.976Z,31.00
2019-03-27T04:37:51.588Z,31.00
2019-03-27T04:40:27.548Z,28.90
2019-03-27T04:42:57.479Z,28.50
2019-03-27T04:45:28.369Z,27.73
2019-03-27T04:47:58.567Z,30.00
2019-03-27T04:50:31.504Z,31.27
2019-03-27T04:53:01.824Z,29.77
2019-03-27T04:55:32.049Z,29.32
2019-03-27T04:58:02.064Z,28.60
2019-03-27T05:00:34.308Z,30.47
2019-03-27T05:03:04.617Z,31.83
2019-03-27T05:05:35.103Z,31.17
2019-03-27T05:08:05.695Z,30.20
2019-03-27T05:10:39.074Z,29.05
2019-03-27T05:13:09.724Z,30.93
2019-03-27T05:15:41.437Z,31.45
2019-03-27T05:18:11.414Z,32.50
2019-03-27T05:20:41.428Z,30.00
2019-03-27T05:23:11.435Z,31.07
2019-03-27T05:25:42.165Z,32.03
2019-03-27T05:28:12.662Z,32.77
2019-03-27T05:30:43.241Z,31.30
2019-03-27T05:33:13.483Z,29.77
2019-03-27T05:35:43.552Z,32.90
2019-03-27T05:38:13.941Z,32.48
2019-03-27T05:40:43.980Z,30.03
2019-03-27T05:43:18.387Z,31.30
2019-03-27T05:45:58.236Z,30.07
2019-03-27T05:48:28.499Z,33.97
2019-03-27T05:51:00.177Z,30.37
2019-03-27T05:53:31.569Z,29.83
2019-03-27T05:56:02.804Z,29.27
2019-03-27T05:58:33.619Z,29.93
2019-03-27T06:01:06.491Z,30.93
2019-03-27T06:03:37.035Z,30.97
2019-03-27T06:06:07.449Z,28.33
2019-03-27T06:08:39.336Z,29.30
2019-03-27T06:11:12.414Z,28.37
2019-03-27T06:13:45.251Z,27.33
2019-03-27T06:16:17.622Z,27.67
2019-03-27T06:18:48.238Z,26.80
2019-03-27T06:21:19.515Z,28.52
2019-03-27T06:23:50.324Z,28.53
2019-03-27T06:26:20.941Z,27.20
2019-03-27T06:28:52.657Z,26.90
2019-03-27T06:31:23.650Z,28.00
2019-03-27T06:33:53.693Z,26.80
2019-03-27T06:36:28.489Z,27.70
2019-03-27T06:38:59.597Z,27.20
2019-03-27T06:41:30.142Z,26.95
2019-03-27T06:44:00.396Z,29.57
2019-03-27T06:46:30.779Z,29.90
2019-03-27T06:49:02.232Z,28.33
2019-03-27T06:51:39.890Z,28.93
2019-03-27T06:54:04.153Z,27.90
2019-03-27T06:56:34.072Z,29.23
2019-03-27T06:59:06.699Z,31.07
2019-03-27T07:01:37.210Z,31.27
2019-03-27T07:04:10.756Z,29.90
2019-03-27T07:06:38.709Z,29.93
2019-03-27T07:09:10.372Z,30.72
2019-03-27T07:11:40.712Z,32.43
2019-03-27T07:14:10.638Z,31.80
2019-03-27T07:16:41.536Z,32.50
2019-03-27T07:19:11.989Z,31.23
2019-03-27T07:21:42.208Z,33.67
2019-03-27T07:24:12.171Z,33.80
2019-03-27T07:26:42.117Z,36.47
2019-03-27T07:29:12.124Z,32.50
2019-03-27T07:31:42.512Z,31.47
2019-03-27T07:34:13.034Z,32.07
2019-03-27T07:36:42.877Z,31.40
2019-03-27T07:39:13.673Z,31.33
2019-03-27T07:41:44.516Z,32.23
2019-03-27T07:44:16.461Z,32.50
2019-03-27T07:46:46.978Z,30.23
2019-03-27T07:49:19.475Z,32.30
2019-03-27T07:51:49.367Z,28.93
2019-03-27T07:54:20.827Z,32.10
2019-03-27T07:56:51.778Z,31.97
2019-03-27T07:59:21.836Z,33.65
2019-03-27T08:01:52.744Z,30.97
2019-03-27T08:04:24.582Z,32.05
2019-03-27T08:06:55.730Z,32.17
2019-03-27T08:09:25.940Z,31.10
2019-03-27T08:11:56.263Z,30.60
2019-03-27T08:14:26.161Z,29.80
2019-03-27T08:16:56.968Z,31.63
2019-03-27T08:19:26.893Z,31.15
2019-03-27T08:21:57.557Z,32.50
2019-03-27T08:24:28.172Z,30.80
2019-03-27T08:27:00.255Z,31.43
2019-03-27T08:29:31.016Z,31.20
2019-03-27T08:32:01.671Z,31.40
2019-03-27T08:34:31.588Z,30.57
2019-03-27T08:37:01.512Z,31.17
2019-03-27T08:39:31.680Z,33.10
2019-03-27T08:42:01.603Z,32.20
2019-03-27T08:44:31.528Z,33.37
2019-03-27T08:47:02.828Z,31.10
2019-03-27T08:49:33.434Z,30.62
2019-03-27T08:52:03.796Z,31.03
2019-03-27T08:54:34.475Z,30.17
2019-03-27T08:57:07.108Z,28.23
2019-03-27T08:59:41.933Z,29.87
2019-03-27T09:02:13.849Z,26.93
2019-03-27T09:04:45.318Z,26.80
2019-03-27T09:07:16.718Z,28.92
2019-03-27T09:09:48.531Z,27.20
2019-03-27T09:12:18.884Z,27.57
2019-03-27T09:14:49.149Z,23.70
2019-03-27T09:17:24.971Z,27.17
2019-03-27T09:19:55.939Z,28.87
2019-03-27T09:22:25.784Z,26.80
2019-03-27T09:24:56.097Z,28.00
2019-03-27T09:27:26.020Z,28.85
2019-03-27T09:29:56.561Z,27.77
2019-03-27T09:32:27.004Z,27.62
2019-03-27T09:34:58.155Z,28.30
2019-03-27T09:37:30.048Z,26.60
2019-03-27T09:40:01.307Z,26.40
2019-03-27T09:42:31.252Z,23.85
2019-03-27T09:45:01.172Z,26.50
2019-03-27T09:47:34.879Z,21.85
2019-03-27T09:50:05.787Z,19.97
2019-03-27T09:52:35.721Z,20.48
2019-03-27T09:55:08.256Z,20.83
2019-03-27T09:57:42.556Z,20.60
2019-03-27T10:00:13.774Z,20.10
2019-03-27T10:02:48.300Z,22.42
2019-03-27T10:05:19.499Z,23.77
2019-03-27T10:07:52.243Z,22.60
2019-03-27T10:10:22.147Z,22.50
2019-03-27T10:12:52.094Z,23.33
2019-03-27T10:15:22.542Z,19.73
2019-03-27T10:17:54.177Z,21.93
2019-03-27T10:20:24.673Z,20.80
2019-03-27T10:22:59.553Z,19.80
2019-03-27T10:25:33.395Z,19.00
2019-03-27T10:28:04.301Z,19.23
2019-03-27T10:30:34.707Z,19.40
2019-03-27T10:33:05.864Z,18.33
2019-03-27T10:35:37.202Z,19.20
2019-03-27T10:38:08.468Z,19.43
2019-03-27T10:40:50.658Z,18.90
2019-03-27T10:43:23.053Z,17.23
2019-03-27T10:45:53.037Z,19.80
2019-03-27T10:48:24.612Z,18.53
2019-03-27T10:50:54.513Z,18.17
2019-03-27T10:53:25.270Z,19.40
2019-03-27T10:55:56.272Z,19.20
2019-03-27T10:58:27.291Z,17.90
2019-03-27T11:00:58.177Z,17.03
2019-03-27T11:03:32.241Z,18.40
2019-03-27T11:06:02.235Z,18.53
2019-03-27T11:08:32.885Z,16.90
2019-03-27T11:11:02.871Z,16.73
2019-03-27T11:13:35.129Z,17.07
2019-03-27T11:16:05.479Z,16.10
2019-03-27T11:18:36.525Z,16.23
2019-03-27T11:21:06.460Z,17.50
2019-03-27T11:23:42.648Z,17.77
2019-03-27T11:26:18.861Z,16.30
2019-03-27T11:28:50.184Z,18.67
2019-03-27T11:31:20.060Z,17.13
2019-03-27T11:33:51.248Z,18.37
2019-03-27T11:36:21.633Z,18.40
2019-03-27T11:38:51.561Z,16.67
2019-03-27T11:41:22.840Z,17.87
2019-03-27T11:43:55.089Z,16.63
2019-03-27T11:46:25.962Z,16.30
2019-03-27T11:48:56.564Z,16.50
2019-03-27T11:51:26.798Z,18.10
2019-03-27T11:53:56.715Z,17.77
2019-03-27T11:56:27.405Z,18.10
2019-03-27T11:58:57.892Z,16.83
2019-03-27T12:01:39.223Z,16.53
2019-03-27T12:04:02.140Z,16.80
2019-03-27T12:06:32.391Z,16.43
2019-03-27T12:09:02.629Z,16.47
2019-03-27T12:11:32.587Z,15.23
2019-03-27T12:14:02.517Z,14.87
2019-03-27T12:16:32.572Z,17.00
2019-03-27T12:19:03.274Z,16.60
2019-03-27T12:21:33.338Z,15.33
2019-03-27T12:24:03.355Z,16.90
2019-03-27T12:26:33.962Z,16.87
2019-03-27T12:29:04.235Z,16.53
2019-03-27T12:31:39.800Z,17.87
2019-03-27T12:34:09.920Z,17.40
2019-03-27T12:36:40.194Z,16.40
2019-03-27T12:39:11.298Z,17.20
2019-03-27T12:41:44.252Z,16.83
2019-03-27T12:44:15.321Z,15.80
2019-03-27T12:46:51.736Z,16.50
2019-03-27T12:49:20.680Z,16.20
2019-03-27T12:51:50.833Z,16.80
2019-03-27T12:54:21.376Z,17.12
2019-03-27T12:56:51.606Z,15.27
2019-03-27T12:59:24.117Z,14.90
2019-03-27T13:01:54.892Z,16.47
2019-03-27T13:04:25.914Z,14.20
2019-03-27T13:06:56.446Z,15.40
2019-03-27T13:09:31.244Z,14.10
2019-03-27T13:12:10.549Z,15.00
2019-03-27T13:14:42.212Z,15.17
2019-03-27T13:17:12.904Z,14.20
2019-03-27T13:19:48.467Z,15.00
2019-03-27T13:22:19.565Z,14.90
2019-03-27T13:24:52.095Z,14.97
2019-03-27T13:27:29.930Z,15.95
2019-03-27T13:30:03.525Z,15.30
2019-03-27T13:32:34.627Z,14.87
2019-03-27T13:35:08.051Z,15.70
2019-03-27T13:37:41.487Z,15.13
2019-03-27T13:40:12.820Z,15.03
2019-03-27T13:42:47.954Z,14.90
2019-03-27T13:45:21.325Z,15.32
2019-03-27T13:47:54.871Z,15.33
2019-03-27T13:50:26.761Z,16.10
2019-03-27T13:52:58.228Z,16.17
2019-03-27T13:55:35.432Z,16.07
2019-03-27T13:58:10.409Z,15.27
2019-03-27T14:00:43.695Z,13.87
2019-03-27T14:03:14.616Z,13.20
2019-03-27T14:05:45.824Z,12.63
2019-03-27T14:08:17.277Z,12.90
2019-03-27T14:10:50.589Z,13.43
2019-03-27T14:13:22.920Z,15.40
2019-03-27T14:15:53.315Z,12.67
2019-03-27T14:18:25.795Z,12.77
2019-03-27T14:20:56.632Z,12.40
2019-03-27T14:23:27.218Z,12.70
2019-03-27T14:25:57.228Z,12.20
2019-03-27T14:28:27.237Z,13.20
2019-03-27T14:30:58.636Z,12.40
2019-03-27T14:33:29.153Z,12.53
2019-03-27T14:35:59.325Z,13.60
2019-03-27T14:38:30.965Z,14.63
2019-03-27T14:41:01.239Z,13.83
2019-03-27T14:43:33.894Z,14.10
2019-03-27T14:46:04.044Z,23.57
2019-03-27T14:48:35.417Z,19.50
2019-03-27T14:51:06.325Z,15.30
2019-03-27T14:53:36.573Z,25.03
2019-03-27T14:56:06.509Z,18.43
2019-03-27T14:58:36.934Z,15.10
2019-03-27T15:01:07.130Z,14.33
2019-03-27T15:03:37.053Z,14.13
2019-03-27T15:06:07.707Z,13.40
2019-03-27T15:08:38.295Z,13.20
2019-03-27T15:11:08.532Z,12.77
2019-03-27T15:13:38.474Z,14.27
2019-03-27T15:16:09.221Z,13.50
2019-03-27T15:18:39.623Z,13.17
2019-03-27T15:21:12.318Z,13.30
2019-03-27T15:23:43.964Z,12.60
2019-03-27T15:26:16.485Z,11.70
2019-03-27T15:28:50.794Z,12.90
2019-03-27T15:31:23.453Z,13.30
2019-03-27T15:33:57.886Z,13.77
2019-03-27T15:36:33.091Z,11.90
2019-03-27T15:39:07.254Z,12.67
2019-03-27T15:41:41.076Z,10.97
2019-03-27T15:44:13.939Z,12.33
2019-03-27T15:46:44.327Z,14.10
2019-03-27T15:49:14.872Z,13.00
2019-03-27T15:51:49.188Z,12.00
2019-03-27T15:54:24.124Z,12.40
2019-03-27T15:56:54.279Z,11.47
2019-03-27T15:59:26.247Z,10.73
2019-03-27T16:01:58.014Z,12.27
2019-03-27T16:04:28.072Z,11.67
2019-03-27T16:07:03.559Z,11.80
2019-03-27T16:09:33.804Z,10.97
2019-03-27T16:12:04.021Z,11.40
2019-03-27T16:14:33.980Z,12.27
2019-03-27T16:17:13.082Z,12.10
2019-03-27T16:19:36.251Z,11.57
2019-03-27T16:22:07.333Z,12.80
2019-03-27T16:24:37.385Z,12.87
2019-03-27T16:27:07.500Z,12.60
2019-03-27T16:29:37.717Z,11.40
2019-03-27T16:32:08.198Z,12.60
2019-03-27T16:34:38.459Z,11.03
2019-03-27T16:37:09.981Z,11.37
2019-03-27T16:39:40.218Z,10.70
2019-03-27T16:42:11.389Z,11.50
2019-03-27T16:44:41.829Z,11.40
2019-03-27T16:47:13.216Z,11.30
2019-03-27T16:49:43.136Z,11.60
2019-03-27T16:52:13.732Z,10.73
2019-03-27T16:54:43.977Z,11.27
2019-03-27T16:57:13.960Z,10.67
2019-03-27T16:59:44.856Z,10.90
2019-03-27T17:02:16.421Z,10.70
2019-03-27T17:04:46.560Z,11.77
2019-03-27T17:07:18.629Z,11.00
2019-03-27T17:09:48.558Z,10.90
2019-03-27T17:12:19.788Z,10.20
2019-03-27T17:14:49.761Z,10.40
2019-03-27T17:17:19.672Z,9.87
2019-03-27T17:19:49.597Z,9.88
2019-03-27T17:22:20.407Z,11.43
2019-03-27T17:24:51.519Z,11.83
2019-03-27T17:27:22.562Z,10.10
2019-03-27T17:29:53.179Z,11.30
2019-03-27T17:32:23.061Z,11.50
2019-03-27T17:34:53.341Z,10.77
2019-03-27T17:37:24.122Z,10.63
2019-03-27T17:39:54.045Z,13.23
2019-03-27T17:42:24.034Z,12.37
2019-03-27T17:44:54.736Z,13.37
2019-03-27T17:47:26.202Z,12.27
2019-03-27T17:49:56.182Z,12.07
2019-03-27T17:52:27.500Z,11.38
2019-03-27T17:55:01.295Z,14.20
2019-03-27T17:57:32.123Z,13.77
2019-03-27T18:00:05.180Z,14.13
2019-03-27T18:02:41.820Z,13.80
2019-03-27T18:05:13.330Z,14.33
2019-03-27T18:07:46.027Z,13.23
2019-03-27T18:10:17.882Z,13.86
2019-03-27T18:12:48.946Z,14.50
2019-03-27T18:15:20.442Z,14.10
2019-03-27T18:17:51.431Z,15.13
2019-03-27T18:20:22.581Z,22.00
2019-03-27T18:22:54.203Z,19.52
2019-03-27T18:25:24.595Z,20.57
2019-03-27T18:27:54.508Z,18.13
2019-03-27T18:30:24.448Z,19.07
2019-03-27T18:32:54.373Z,19.00
2019-03-27T18:35:24.551Z,19.70
2019-03-27T18:37:54.471Z,20.70
2019-03-27T18:40:24.379Z,18.73
2019-03-27T18:42:54.921Z,20.10
2019-03-27T18:45:32.837Z,19.53
2019-03-27T18:48:03.302Z,18.20
2019-03-27T18:50:33.416Z,17.60
2019-03-27T18:53:03.479Z,18.87
2019-03-27T18:55:34.398Z,19.42
2019-03-27T18:58:04.482Z,17.93
2019-03-27T19:00:34.988Z,17.48
2019-03-27T19:03:05.421Z,20.57
2019-03-27T19:05:37.032Z,18.92
2019-03-27T19:08:07.784Z,18.23
2019-03-27T19:10:38.936Z,18.30
2019-03-27T19:13:08.887Z,18.07
2019-03-27T19:15:41.212Z,18.70
2019-03-27T19:18:12.995Z,16.20
2019-03-27T19:20:43.206Z,18.33
2019-03-27T19:23:20.329Z,19.30
2019-03-27T19:25:50.833Z,19.60
2019-03-27T19:28:26.273Z,16.52
2019-03-27T19:30:55.637Z,15.87
2019-03-27T19:33:27.708Z,17.05
2019-03-27T19:35:57.668Z,19.60
2019-03-27T19:38:27.656Z,18.55
2019-03-27T19:40:59.843Z,18.12
2019-03-27T19:43:30.699Z,19.80
2019-03-27T19:46:02.509Z,19.07
2019-03-27T19:48:33.255Z,19.57
2019-03-27T19:51:03.168Z,18.13
2019-03-27T19:53:34.572Z,18.90
2019-03-27T19:56:04.545Z,21.33
2019-03-27T19:58:35.646Z,21.60
2019-03-27T20:01:07.736Z,23.43
2019-03-27T20:03:40.726Z,29.20
2019-03-27T20:06:11.706Z,24.85
2019-03-27T20:08:41.756Z,19.30
2019-03-27T20:11:11.733Z,16.73
2019-03-27T20:13:41.726Z,21.33
2019-03-27T20:16:14.130Z,20.52
2019-03-27T20:18:44.508Z,21.00
2019-03-27T20:21:18.429Z,18.43
2019-03-27T20:23:51.493Z,16.50
2019-03-27T20:26:23.411Z,16.50
2019-03-27T20:28:57.094Z,16.53
2019-03-27T20:31:27.045Z,18.17
2019-03-27T20:33:57.072Z,18.10
2019-03-27T20:36:27.844Z,17.40
2019-03-27T20:38:57.813Z,18.60
2019-03-27T20:41:27.763Z,16.30
2019-03-27T20:43:58.177Z,17.67
2019-03-27T20:46:29.380Z,17.12
2019-03-27T20:48:59.460Z,17.30
2019-03-27T20:51:32.411Z,16.33
2019-03-27T20:54:07.003Z,19.17
2019-03-27T20:56:37.940Z,17.50
2019-03-27T20:59:08.298Z,19.03
2019-03-27T21:01:39.569Z,18.50
2019-03-27T21:04:10.278Z,19.63
2019-03-27T21:06:41.147Z,18.37
2019-03-27T21:09:12.979Z,19.80
2019-03-27T21:11:43.851Z,18.80
2019-03-27T21:14:14.173Z,20.70
2019-03-27T21:16:44.670Z,19.93
2019-03-27T21:19:17.209Z,20.65
2019-03-27T21:21:51.213Z,19.77
2019-03-27T21:24:21.660Z,19.63
2019-03-27T21:26:51.985Z,20.48
2019-03-27T21:29:25.593Z,19.67
2019-03-27T21:31:59.397Z,20.47
2019-03-27T21:34:30.005Z,19.90
2019-03-27T21:37:05.433Z,19.27
2019-03-27T21:39:37.881Z,18.92
2019-03-27T21:42:08.792Z,18.70
2019-03-27T21:44:38.825Z,18.37
2019-03-27T21:47:12.979Z,19.10
2019-03-27T21:49:43.705Z,20.03
2019-03-27T21:52:14.782Z,21.02
2019-03-27T21:54:45.798Z,19.17
2019-03-27T21:57:17.698Z,21.20
2019-03-27T21:59:48.412Z,20.30
2019-03-27T22:02:18.791Z,22.10
2019-03-27T22:04:48.699Z,23.27
2019-03-27T22:07:19.436Z,23.73
2019-03-27T22:09:49.575Z,20.12
2019-03-27T22:12:20.113Z,19.03
2019-03-27T22:14:51.300Z,19.67
2019-03-27T22:17:22.709Z,21.93
2019-03-27T22:19:53.463Z,22.70
2019-03-27T22:22:24.292Z,22.53
2019-03-27T22:24:55.308Z,20.90
2019-03-27T22:27:25.859Z,21.47
2019-03-27T22:29:56.052Z,21.10
2019-03-27T22:32:27.243Z,20.47
2019-03-27T22:34:57.813Z,20.43
2019-03-27T22:37:30.668Z,21.87
2019-03-27T22:40:01.016Z,20.37
2019-03-27T22:42:31.085Z,21.90
2019-03-27T22:45:01.003Z,21.33
2019-03-27T22:47:31.880Z,24.40
2019-03-27T22:50:02.297Z,21.80
2019-03-27T22:52:32.516Z,23.10
2019-03-27T22:55:02.794Z,23.37
2019-03-27T22:57:32.709Z,22.47
2019-03-27T23:00:02.625Z,21.75
2019-03-27T23:02:33.273Z,23.10
2019-03-27T23:05:03.922Z,25.53
2019-03-27T23:07:34.738Z,23.03
2019-03-27T23:10:06.052Z,23.57
2019-03-27T23:12:37.275Z,24.73
2019-03-27T23:15:08.679Z,22.37
2019-03-27T23:17:38.699Z,23.37
2019-03-27T23:20:13.965Z,21.33
2019-03-27T23:22:44.289Z,22.10
2019-03-27T23:25:15.017Z,21.42
2019-03-27T23:27:45.812Z,22.40
2019-03-27T23:30:17.099Z,22.17
2019-03-27T23:32:47.996Z,21.03
2019-03-27T23:35:18.657Z,21.42
2019-03-27T23:37:48.819Z,22.13
2019-03-27T23:40:19.568Z,22.40
2019-03-27T23:42:51.553Z,22.73
2019-03-27T23:45:22.080Z,23.33
2019-03-27T23:47:53.438Z,22.07
2019-03-27T23:50:28.900Z,21.90
2019-03-27T23:53:02.620Z,20.97
2019-03-27T23:55:33.109Z,21.25
2019-03-27T23:58:03.220Z,20.83
